Terminal Aerodrome Forecast
Issued by NWS

Home | Current Version | Previous Version | Text Only | Print | Product List | Glossary On
Versions: 1 2 3 4 5 6 7 8 9 10 11 12 13 14 15 16 17 18 19 20 21 22
067
FTUS46 KMTR 251741
TAFMRY
TAF
KMRY 251741Z 2518/2618 VRB03KT P6SM OVC003
     FM251900 26008KT P6SM SCT009
     FM260300 24004KT 5SM BR FU OVC009=

USA.gov is the U.S. government's official web portal to all federal, state and local government web resources and services.